createdAt,value
2018-09-02T00:02:11.470Z,102312.86
2018-09-02T00:04:40.360Z,102311.61
2018-09-02T00:07:09.255Z,102309.66
2018-09-02T00:09:38.136Z,102312.36
2018-09-02T00:12:07.010Z,102315.36
2018-09-02T00:14:35.920Z,102312.61
2018-09-02T00:17:04.790Z,102310.98
2018-09-02T00:19:33.650Z,102316.17
2018-09-02T00:22:02.503Z,102316.33
2018-09-02T00:24:31.390Z,102312.88
2018-09-02T00:27:00.230Z,102306.20
2018-09-02T00:29:29.060Z,102305.33
2018-09-02T00:31:57.897Z,102306.80
2018-09-02T00:34:26.733Z,102301.22
2018-09-02T00:36:55.592Z,102300.59
2018-09-02T00:39:24.438Z,102300.34
2018-09-02T00:41:53.339Z,102299.01
2018-09-02T00:44:22.194Z,102300.47
2018-09-02T00:46:51.109Z,102299.12
2018-09-02T00:49:19.992Z,102297.14
2018-09-02T00:51:48.870Z,102295.30
2018-09-02T00:54:17.724Z,102297.76
2018-09-02T00:56:46.685Z,102304.45
2018-09-02T00:59:15.510Z,102293.30
2018-09-02T01:01:44.344Z,102302.83
2018-09-02T01:04:13.210Z,102304.55
2018-09-02T01:06:42.135Z,102306.03
2018-09-02T01:09:11.004Z,102314.46
2018-09-02T01:11:39.863Z,102310.02
2018-09-02T01:14:09.189Z,102304.68
2018-09-02T01:16:38.072Z,102303.93
2018-09-02T01:19:06.960Z,102307.00
2018-09-02T01:21:35.831Z,102311.09
2018-09-02T01:24:04.719Z,102307.23
2018-09-02T01:26:33.555Z,102306.62
2018-09-02T01:29:02.471Z,102310.34
2018-09-02T01:31:31.314Z,102313.59
2018-09-02T01:34:00.212Z,102306.40
2018-09-02T01:36:29.123Z,102300.31
2018-09-02T01:38:57.983Z,102308.66
2018-09-02T01:41:26.867Z,102312.97
2018-09-02T01:43:55.779Z,102307.38
2018-09-02T01:46:24.657Z,102307.27
2018-09-02T01:48:53.537Z,102309.73
2018-09-02T01:51:22.388Z,102306.14
2018-09-02T01:53:51.250Z,102313.44
2018-09-02T01:56:20.130Z,102303.03
2018-09-02T01:58:49.011Z,102304.31
2018-09-02T02:01:17.879Z,102302.45
2018-09-02T02:03:46.778Z,102302.08
2018-09-02T02:06:15.619Z,102294.37
2018-09-02T02:08:44.495Z,102292.15
2018-09-02T02:11:13.385Z,102299.83
2018-09-02T02:13:42.271Z,102293.14
2018-09-02T02:16:11.157Z,102296.00
2018-09-02T02:18:40.041Z,102299.45
2018-09-02T02:21:08.940Z,102297.02
2018-09-02T02:23:37.810Z,102295.16
2018-09-02T02:26:06.637Z,102295.62
2018-09-02T02:28:35.516Z,102297.47
2018-09-02T02:31:04.672Z,102290.18
2018-09-02T02:33:33.563Z,102291.31
2018-09-02T02:36:02.455Z,102283.48
2018-09-02T02:38:31.298Z,102287.69
2018-09-02T02:41:00.172Z,102275.94
2018-09-02T02:43:29.024Z,102279.03
2018-09-02T02:45:57.876Z,102281.64
2018-09-02T02:48:26.757Z,102279.65
2018-09-02T02:50:55.669Z,102280.63
2018-09-02T02:53:24.574Z,102278.02
2018-09-02T02:55:53.412Z,102283.58
2018-09-02T02:58:22.311Z,102276.17
2018-09-02T03:00:51.156Z,102275.80
2018-09-02T03:03:20.011Z,102272.58
2018-09-02T03:05:48.913Z,102269.38
2018-09-02T03:08:17.845Z,102266.27
2018-09-02T03:10:46.748Z,102267.75
2018-09-02T03:13:15.611Z,102268.88
2018-09-02T03:15:44.485Z,102263.66
2018-09-02T03:18:13.345Z,102264.16
2018-09-02T03:20:42.224Z,102261.81
2018-09-02T03:23:11.093Z,102270.35
2018-09-02T03:25:39.977Z,102265.28
2018-09-02T03:28:08.907Z,102262.94
2018-09-02T03:30:37.794Z,102256.74
2018-09-02T03:33:06.681Z,102250.31
2018-09-02T03:35:35.573Z,102251.79
2018-09-02T03:38:04.453Z,102253.64
2018-09-02T03:40:33.329Z,102255.12
2018-09-02T03:43:02.178Z,102252.92
2018-09-02T03:45:31.039Z,102247.11
2018-09-02T03:47:59.913Z,102247.11
2018-09-02T03:50:28.779Z,102247.33
2018-09-02T03:52:57.632Z,102240.41
2018-09-02T03:55:26.483Z,102235.84
2018-09-02T03:57:55.392Z,102242.02
2018-09-02T04:00:24.291Z,102236.97
2018-09-02T04:02:53.180Z,102239.80
2018-09-02T04:05:22.047Z,102239.69
2018-09-02T04:07:50.939Z,102237.09
2018-09-02T04:10:19.855Z,102239.06
2018-09-02T04:12:48.740Z,102237.72
2018-09-02T04:15:17.659Z,102244.88
2018-09-02T04:17:46.538Z,102244.12
2018-09-02T04:20:20.466Z,102239.42
2018-09-02T04:22:49.352Z,102240.30
2018-09-02T04:25:18.229Z,102240.16
2018-09-02T04:27:47.152Z,102238.30
2018-09-02T04:30:16.027Z,102235.82
2018-09-02T04:32:44.904Z,102239.34
2018-09-02T04:35:13.800Z,102233.91
2018-09-02T04:37:42.743Z,102237.13
2018-09-02T04:40:11.726Z,102232.32
2018-09-02T04:42:40.647Z,102234.78
2018-09-02T04:45:09.723Z,102235.50
2018-09-02T04:47:38.542Z,102235.99
2018-09-02T04:50:16.007Z,102233.04
2018-09-02T04:52:44.932Z,102231.42
2018-09-02T04:55:13.806Z,102233.01
2018-09-02T04:57:43.594Z,102232.02
2018-09-02T05:00:12.581Z,102231.16
2018-09-02T05:02:41.441Z,102233.61
2018-09-02T05:05:10.313Z,102228.81
2018-09-02T05:07:39.202Z,102226.47
2018-09-02T05:10:08.148Z,102233.27
2018-09-02T05:12:37.062Z,102224.50
2018-09-02T05:15:05.981Z,102222.77
2018-09-02T05:17:35.230Z,102217.21
2018-09-02T05:20:04.183Z,102214.34
2018-09-02T05:22:33.043Z,102216.19
2018-09-02T05:25:01.919Z,102221.05
2018-09-02T05:27:30.777Z,102221.06
2018-09-02T05:29:59.652Z,102219.81
2018-09-02T05:32:28.522Z,102229.97
2018-09-02T05:34:57.429Z,102233.21
2018-09-02T05:37:26.297Z,102232.00
2018-09-02T05:39:55.206Z,102232.38
2018-09-02T05:42:24.090Z,102236.45
2018-09-02T05:44:52.969Z,102232.02
2018-09-02T05:47:21.860Z,102232.50
2018-09-02T05:49:50.748Z,102240.08
2018-09-02T05:52:19.631Z,102246.73
2018-09-02T05:54:48.531Z,102243.05
2018-09-02T05:57:17.421Z,102242.05
2018-09-02T05:59:46.316Z,102237.23
2018-09-02T06:02:15.190Z,102243.42
2018-09-02T06:04:44.118Z,102244.77
2018-09-02T06:07:13.016Z,102239.08
2018-09-02T06:09:41.863Z,102236.59
2018-09-02T06:12:10.733Z,102243.38
2018-09-02T06:14:39.617Z,102240.77
2018-09-02T06:17:08.483Z,102242.61
2018-09-02T06:19:37.337Z,102240.59
2018-09-02T06:22:06.229Z,102245.55
2018-09-02T06:24:35.120Z,102244.44
2018-09-02T06:27:03.986Z,102246.05
2018-09-02T06:29:32.857Z,102250.01
2018-09-02T06:32:01.803Z,102238.48
2018-09-02T06:34:30.655Z,102254.69
2018-09-02T06:36:59.561Z,102250.31
2018-09-02T06:39:28.524Z,102246.09
2018-09-02T06:41:57.334Z,102243.20
2018-09-02T06:44:26.234Z,102248.48
2018-09-02T06:46:55.117Z,102244.17
2018-09-02T06:49:23.949Z,102248.95
2018-09-02T06:51:52.838Z,102248.99
2018-09-02T06:54:22.032Z,102246.73
2018-09-02T06:56:50.902Z,102232.04
2018-09-02T06:59:19.785Z,102241.05
2018-09-02T07:01:48.656Z,102241.91
2018-09-02T07:04:17.494Z,102239.91
2018-09-02T07:06:46.359Z,102244.66
2018-09-02T07:09:15.232Z,102241.64
2018-09-02T07:11:44.141Z,102239.38
2018-09-02T07:14:13.060Z,102235.07
2018-09-02T07:16:41.912Z,102244.66
2018-09-02T07:19:10.790Z,102240.86
2018-09-02T07:21:39.676Z,102241.06
2018-09-02T07:24:08.525Z,102250.00
2018-09-02T07:26:37.387Z,102243.75
2018-09-02T07:29:06.291Z,102246.04
2018-09-02T07:31:35.282Z,102251.65
2018-09-02T07:34:04.048Z,102251.09
2018-09-02T07:36:32.932Z,102258.08
2018-09-02T07:39:01.799Z,102250.31
2018-09-02T07:41:30.656Z,102247.97
2018-09-02T07:43:59.507Z,102250.37
2018-09-02T07:46:28.367Z,102251.50
2018-09-02T07:48:57.211Z,102255.23
2018-09-02T07:51:26.099Z,102250.40
2018-09-02T07:53:54.962Z,102250.91
2018-09-02T07:56:23.867Z,102240.47
2018-09-02T07:58:52.744Z,102246.33
2018-09-02T08:01:21.633Z,102243.97
2018-09-02T08:03:50.535Z,102241.95
2018-09-02T08:06:19.443Z,102240.10
2018-09-02T08:08:48.239Z,102246.49
2018-09-02T08:11:17.071Z,102235.97
2018-09-02T08:13:45.912Z,102245.67
2018-09-02T08:16:14.745Z,102255.58
2018-09-02T08:18:43.647Z,102246.27
2018-09-02T08:21:12.480Z,102241.67
2018-09-02T08:23:41.331Z,102248.80
2018-09-02T08:26:10.193Z,102248.38
2018-09-02T08:28:39.144Z,102248.61
2018-09-02T08:31:08.016Z,102247.37
2018-09-02T08:33:36.885Z,102242.94
2018-09-02T08:36:05.723Z,102244.69
2018-09-02T08:38:34.644Z,102232.97
2018-09-02T08:41:03.464Z,102234.81
2018-09-02T08:43:32.348Z,102237.23
2018-09-02T08:46:01.194Z,102247.87
2018-09-02T08:48:30.112Z,102233.33
2018-09-02T08:50:59.440Z,102236.30
2018-09-02T08:53:33.953Z,102233.48
2018-09-02T08:56:06.100Z,102239.73
2018-09-02T08:58:35.329Z,102237.48
2018-09-02T09:01:09.754Z,102228.36
2018-09-02T09:03:39.080Z,102226.84
2018-09-02T09:06:10.891Z,102232.87
2018-09-02T09:08:45.132Z,102229.77
2018-09-02T09:11:18.153Z,102233.73
2018-09-02T09:13:50.147Z,102231.30
2018-09-02T09:16:22.865Z,102234.05
2018-09-02T09:18:51.946Z,102230.27
2018-09-02T09:21:21.047Z,102223.22
2018-09-02T09:23:50.152Z,102227.52
2018-09-02T09:26:19.266Z,102224.97
2018-09-02T09:28:48.448Z,102221.00
2018-09-02T09:31:17.888Z,102217.32
2018-09-02T09:33:48.907Z,102220.86
2018-09-02T09:36:18.048Z,102211.12
2018-09-02T09:38:47.606Z,102208.73
2018-09-02T09:41:17.107Z,102202.80
2018-09-02T09:43:50.280Z,102209.37
2018-09-02T09:46:19.727Z,102201.97
2018-09-02T09:48:48.986Z,102199.67
2018-09-02T09:51:18.277Z,102201.28
2018-09-02T09:53:47.359Z,102198.89
2018-09-02T09:56:19.403Z,102199.70
2018-09-02T09:58:48.887Z,102196.94
2018-09-02T10:01:18.420Z,102194.86
2018-09-02T10:03:47.989Z,102195.51
2018-09-02T10:06:17.239Z,102194.59
2018-09-02T10:08:48.081Z,102189.94
2018-09-02T10:11:18.949Z,102185.45
2018-09-02T10:13:51.814Z,102181.64
2018-09-02T10:16:20.920Z,102178.75
2018-09-02T10:18:50.074Z,102175.09
2018-09-02T10:21:27.117Z,102164.49
2018-09-02T10:23:56.341Z,102163.34
2018-09-02T10:26:25.863Z,102163.60
2018-09-02T10:28:55.278Z,102165.64
2018-09-02T10:31:26.604Z,102149.11
2018-09-02T10:33:58.520Z,102151.14
2018-09-02T10:36:27.653Z,102141.36
2018-09-02T10:38:59.979Z,102148.94
2018-09-02T10:41:29.430Z,102136.59
2018-09-02T10:44:02.624Z,102129.43
2018-09-02T10:46:37.924Z,102126.45
2018-09-02T10:49:07.050Z,102125.17
2018-09-02T10:51:37.149Z,102126.84
2018-09-02T10:54:09.762Z,102126.70
2018-09-02T10:56:42.595Z,102115.22
2018-09-02T10:59:12.501Z,102119.30
2018-09-02T11:01:42.181Z,102109.58
2018-09-02T11:04:21.416Z,102115.24
2018-09-02T11:06:53.552Z,102107.80
2018-09-02T11:09:23.189Z,102115.49
2018-09-02T11:11:55.104Z,102112.76
2018-09-02T11:14:24.236Z,102101.93
2018-09-02T11:16:56.686Z,102101.71
2018-09-02T11:19:23.190Z,102103.84
2018-09-02T11:21:52.755Z,102095.11
2018-09-02T11:24:22.242Z,102097.61
2018-09-02T11:26:56.113Z,102097.67
2018-09-02T11:29:31.815Z,102100.25
2018-09-02T11:32:02.845Z,102096.24
2018-09-02T11:34:31.933Z,102094.58
2018-09-02T11:37:01.178Z,102093.86
2018-09-02T11:39:32.971Z,102098.38
2018-09-02T11:42:05.310Z,102087.20
2018-09-02T11:44:37.452Z,102083.91
2018-09-02T11:47:06.678Z,102079.52
2018-09-02T11:49:36.143Z,102078.51
2018-09-02T11:52:07.799Z,102078.04
2018-09-02T11:54:37.252Z,102074.63
2018-09-02T11:57:06.140Z,102073.63
2018-09-02T11:59:35.662Z,102068.52
2018-09-02T12:02:04.983Z,102069.58
2018-09-02T12:04:34.450Z,102069.75
2018-09-02T12:07:04.439Z,102067.23
2018-09-02T12:09:34.172Z,102063.90
2018-09-02T12:12:03.143Z,102058.45
2018-09-02T12:14:35.554Z,102054.41
2018-09-02T12:17:04.563Z,102055.31
2018-09-02T12:19:33.693Z,102050.14
2018-09-02T12:22:03.291Z,102052.84
2018-09-02T12:24:32.743Z,102055.23
2018-09-02T12:27:02.080Z,102051.19
2018-09-02T12:29:34.051Z,102044.10
2018-09-02T12:32:03.202Z,102042.86
2018-09-02T12:34:35.375Z,102046.56
2018-09-02T12:37:07.797Z,102043.34
2018-09-02T12:39:39.356Z,102037.07
2018-09-02T12:42:08.628Z,102035.25
2018-09-02T12:44:39.413Z,102030.35
2018-09-02T12:47:10.143Z,102035.04
2018-09-02T12:49:39.606Z,102031.73
2018-09-02T12:52:12.020Z,102033.00
2018-09-02T12:54:42.525Z,102025.44
2018-09-02T12:57:16.201Z,102023.73
2018-09-02T12:59:48.079Z,102014.53
2018-09-02T13:02:21.473Z,102010.34
2018-09-02T13:04:53.321Z,102004.91
2018-09-02T13:07:25.513Z,102007.31
2018-09-02T13:09:54.904Z,102007.34
2018-09-02T13:12:26.616Z,102002.20
2018-09-02T13:14:53.445Z,102002.98
2018-09-02T13:17:23.067Z,101998.60
2018-09-02T13:19:52.327Z,101991.86
2018-09-02T13:22:23.955Z,101993.98
2018-09-02T13:24:53.125Z,101991.83
2018-09-02T13:27:22.408Z,101976.33
2018-09-02T13:29:54.297Z,101983.72
2018-09-02T13:32:23.465Z,101974.95
2018-09-02T13:34:52.935Z,101979.45
2018-09-02T13:37:22.540Z,101976.02
2018-09-02T13:39:52.635Z,101962.77
2018-09-02T13:42:21.722Z,101959.22
2018-09-02T13:44:50.943Z,101967.12
2018-09-02T13:47:20.419Z,101952.63
2018-09-02T13:49:49.515Z,101951.76
2018-09-02T13:52:19.061Z,101942.04
2018-09-02T13:54:48.270Z,101940.98
2018-09-02T13:57:17.340Z,101941.08
2018-09-02T13:59:46.458Z,101941.08
2018-09-02T14:02:18.194Z,101933.81
2018-09-02T14:04:47.738Z,101937.53
2018-09-02T14:07:19.750Z,101938.54
2018-09-02T14:09:49.131Z,101930.41
2018-09-02T14:12:18.634Z,101931.69
2018-09-02T14:14:50.113Z,101928.58
2018-09-02T14:17:20.628Z,101920.80
2018-09-02T14:19:52.805Z,101921.44
2018-09-02T14:22:22.531Z,101915.23
2018-09-02T14:24:53.152Z,101915.68
2018-09-02T14:27:22.736Z,101917.16
2018-09-02T14:29:51.912Z,101909.34
2018-09-02T14:32:21.798Z,101915.14
2018-09-02T14:34:50.641Z,101909.34
2018-09-02T14:37:19.425Z,101902.52
2018-09-02T14:39:48.268Z,101904.77
2018-09-02T14:42:17.125Z,101898.68
2018-09-02T14:44:45.968Z,101896.23
2018-09-02T14:47:14.805Z,101897.88
2018-09-02T14:49:43.670Z,101897.68
2018-09-02T14:52:12.504Z,101892.95
2018-09-02T14:54:41.351Z,101893.48
2018-09-02T14:57:10.196Z,101889.23
2018-09-02T14:59:39.071Z,101886.02
2018-09-02T15:02:07.910Z,101892.09
2018-09-02T15:04:36.823Z,101887.28
2018-09-02T15:07:05.698Z,101882.14
2018-09-02T15:09:34.573Z,101878.83
2018-09-02T15:12:03.445Z,101879.31
2018-09-02T15:14:32.327Z,101880.28
2018-09-02T15:17:01.190Z,101876.74
2018-09-02T15:19:30.026Z,101872.17
2018-09-02T15:21:58.892Z,101881.73
2018-09-02T15:24:27.750Z,101869.45
2018-09-02T15:26:56.594Z,101869.20
2018-09-02T15:29:25.426Z,101875.20
2018-09-02T15:31:54.282Z,101869.65
2018-09-02T15:34:23.151Z,101860.80
2018-09-02T15:36:52.200Z,101861.95
2018-09-02T15:39:21.057Z,101862.39
2018-09-02T15:41:49.911Z,101862.67
2018-09-02T15:44:18.771Z,101857.33
2018-09-02T15:46:47.692Z,101854.99
2018-09-02T15:49:16.511Z,101855.39
2018-09-02T15:51:45.357Z,101849.75
2018-09-02T15:54:14.194Z,101844.94
2018-09-02T15:56:43.045Z,101849.95
2018-09-02T15:59:11.873Z,101846.60
2018-09-02T16:01:40.755Z,101842.45
2018-09-02T16:04:09.601Z,101840.33
2018-09-02T16:06:38.471Z,101834.44
2018-09-02T16:09:08.965Z,101841.88
2018-09-02T16:11:37.919Z,101836.66
2018-09-02T16:14:07.322Z,101829.48
2018-09-02T16:16:36.201Z,101819.28
2018-09-02T16:19:05.119Z,101822.09
2018-09-02T16:21:33.997Z,101822.76
2018-09-02T16:24:02.921Z,101828.06
2018-09-02T16:26:31.797Z,101825.78
2018-09-02T16:29:00.685Z,101826.91
2018-09-02T16:31:29.557Z,101826.49
2018-09-02T16:33:58.406Z,101826.97
2018-09-02T16:36:27.273Z,101829.68
2018-09-02T16:38:56.143Z,101826.59
2018-09-02T16:41:25.066Z,101824.91
2018-09-02T16:43:53.927Z,101822.44
2018-09-02T16:46:22.800Z,101830.81
2018-09-02T16:48:51.699Z,101815.19
2018-09-02T16:51:20.571Z,101821.12
2018-09-02T16:53:49.423Z,101825.20
2018-09-02T16:56:18.281Z,101816.53
2018-09-02T16:58:47.177Z,101818.07
2018-09-02T17:01:16.026Z,101814.12
2018-09-02T17:03:48.193Z,101809.39
2018-09-02T17:06:17.120Z,101814.66
2018-09-02T17:08:45.902Z,101812.86
2018-09-02T17:11:14.740Z,101812.55
2018-09-02T17:13:43.617Z,101807.01
2018-09-02T17:16:12.474Z,101808.01
2018-09-02T17:18:41.474Z,101801.62
2018-09-02T17:21:10.348Z,101806.72
2018-09-02T17:23:39.268Z,101802.34
2018-09-02T17:26:08.207Z,101801.81
2018-09-02T17:28:37.037Z,101796.94
2018-09-02T17:31:05.927Z,101794.39
2018-09-02T17:33:34.815Z,101792.58
2018-09-02T17:36:03.688Z,101793.98
2018-09-02T17:38:32.561Z,101793.27
2018-09-02T17:41:01.408Z,101789.05
2018-09-02T17:43:30.275Z,101786.20
2018-09-02T17:45:59.324Z,101784.97
2018-09-02T17:48:28.035Z,101795.64
2018-09-02T17:50:56.919Z,101790.38
2018-09-02T17:53:25.815Z,101787.05
2018-09-02T17:55:54.812Z,101787.16
2018-09-02T17:58:23.616Z,101787.41
2018-09-02T18:00:54.279Z,101793.39
2018-09-02T18:03:23.143Z,101790.50
2018-09-02T18:05:52.039Z,101798.17
2018-09-02T18:08:20.963Z,101801.89
2018-09-02T18:10:49.833Z,101805.06
2018-09-02T18:13:18.724Z,101805.86
2018-09-02T18:15:47.659Z,101800.80
2018-09-02T18:18:16.482Z,101801.59
2018-09-02T18:20:45.369Z,101795.46
2018-09-02T18:23:14.269Z,101796.04
2018-09-02T18:25:43.157Z,101800.67
2018-09-02T18:28:14.958Z,101802.23
2018-09-02T18:30:43.822Z,101807.08
2018-09-02T18:33:12.697Z,101808.01
2018-09-02T18:35:41.540Z,101812.03
2018-09-02T18:38:10.418Z,101818.62
2018-09-02T18:40:39.271Z,101809.55
2018-09-02T18:43:08.171Z,101816.64
2018-09-02T18:45:37.050Z,101816.13
2018-09-02T18:48:05.880Z,101815.45
2018-09-02T18:50:34.737Z,101811.02
2018-09-02T18:53:03.612Z,101817.03
2018-09-02T18:55:32.497Z,101824.46
2018-09-02T18:58:01.392Z,101828.90
2018-09-02T19:00:30.285Z,101825.69
2018-09-02T19:02:59.199Z,101824.51
2018-09-02T19:05:28.314Z,101820.23
2018-09-02T19:07:57.157Z,101820.77
2018-09-02T19:10:26.103Z,101819.73
2018-09-02T19:12:54.960Z,101811.16
2018-09-02T19:15:23.844Z,101815.12
2018-09-02T19:17:52.739Z,101811.84
2018-09-02T19:20:21.624Z,101816.13
2018-09-02T19:22:50.541Z,101812.37
2018-09-02T19:25:19.448Z,101811.81
2018-09-02T19:27:48.299Z,101814.92
2018-09-02T19:30:17.181Z,101814.05
2018-09-02T19:32:46.071Z,101823.00
2018-09-02T19:35:14.983Z,101820.07
2018-09-02T19:37:43.834Z,101818.52
2018-09-02T19:40:13.026Z,101821.43
2018-09-02T19:42:41.853Z,101819.91
2018-09-02T19:45:10.689Z,101822.98
2018-09-02T19:47:39.579Z,101814.22
2018-09-02T19:50:08.521Z,101812.84
2018-09-02T19:52:37.409Z,101806.48
2018-09-02T19:55:06.386Z,101808.05
2018-09-02T19:57:35.243Z,101808.04
2018-09-02T20:00:04.110Z,101804.27
2018-09-02T20:02:32.973Z,101802.36
2018-09-02T20:05:01.969Z,101800.84
2018-09-02T20:07:30.835Z,101802.87
2018-09-02T20:09:59.736Z,101803.55
2018-09-02T20:12:28.608Z,101806.80
2018-09-02T20:14:57.449Z,101803.05
2018-09-02T20:17:26.317Z,101806.28
2018-09-02T20:19:55.239Z,101806.95
2018-09-02T20:22:24.053Z,101806.45
2018-09-02T20:24:52.968Z,101807.99
2018-09-02T20:27:21.817Z,101800.61
2018-09-02T20:29:50.690Z,101804.22
2018-09-02T20:32:19.567Z,101803.02
2018-09-02T20:34:48.406Z,101797.02
2018-09-02T20:37:17.274Z,101793.09
2018-09-02T20:39:46.134Z,101797.20
2018-09-02T20:42:15.026Z,101788.78
2018-09-02T20:44:43.876Z,101791.34
2018-09-02T20:47:12.740Z,101793.61
2018-09-02T20:49:41.594Z,101796.17
2018-09-02T20:52:10.486Z,101797.38
2018-09-02T20:54:39.377Z,101793.09
2018-09-02T20:57:08.243Z,101792.06
2018-09-02T20:59:37.083Z,101792.23
2018-09-02T21:02:06.160Z,101789.49
2018-09-02T21:04:34.992Z,101789.84
2018-09-02T21:07:03.894Z,101786.23
2018-09-02T21:09:32.746Z,101785.74
2018-09-02T21:12:01.630Z,101778.02
2018-09-02T21:14:30.504Z,101785.91
2018-09-02T21:16:59.475Z,101783.50
2018-09-02T21:19:28.288Z,101779.20
2018-09-02T21:21:57.155Z,101782.47
2018-09-02T21:24:26.067Z,101776.28
2018-09-02T21:26:54.988Z,101780.23
2018-09-02T21:29:23.928Z,101780.41
2018-09-02T21:31:52.805Z,101776.63
2018-09-02T21:34:21.674Z,101772.67
2018-09-02T21:36:50.556Z,101766.83
2018-09-02T21:39:19.402Z,101768.91
2018-09-02T21:41:48.268Z,101770.44
2018-09-02T21:44:17.122Z,101770.09
2018-09-02T21:46:46.015Z,101763.58
2018-09-02T21:49:14.989Z,101761.69
2018-09-02T21:51:43.901Z,101763.25
2018-09-02T21:54:12.784Z,101752.08
2018-09-02T21:56:41.722Z,101751.91
2018-09-02T21:59:10.571Z,101752.94
2018-09-02T22:01:39.438Z,101757.75
2018-09-02T22:04:08.351Z,101756.89
2018-09-02T22:06:37.242Z,101759.13
2018-09-02T22:09:15.196Z,101753.63
2018-09-02T22:11:44.350Z,101760.48
2018-09-02T22:14:13.863Z,101756.02
2018-09-02T22:16:43.410Z,101755.36
2018-09-02T22:19:12.468Z,101751.75
2018-09-02T22:21:41.416Z,101750.03
2018-09-02T22:24:10.320Z,101755.52
2018-09-02T22:26:39.192Z,101758.42
2018-09-02T22:29:08.111Z,101752.27
2018-09-02T22:31:36.886Z,101751.06
2018-09-02T22:34:05.776Z,101757.92
2018-09-02T22:36:34.671Z,101747.44
2018-09-02T22:39:05.030Z,101750.88
2018-09-02T22:41:33.884Z,101745.02
2018-09-02T22:44:02.756Z,101743.14
2018-09-02T22:46:31.647Z,101742.97
2018-09-02T22:49:00.546Z,101741.28
2018-09-02T22:51:29.362Z,101742.13
2018-09-02T22:53:58.233Z,101736.45
2018-09-02T22:56:27.123Z,101728.89
2018-09-02T22:58:55.965Z,101727.38
2018-09-02T23:01:24.840Z,101724.80
2018-09-02T23:03:53.704Z,101728.23
2018-09-02T23:06:22.587Z,101718.79
2018-09-02T23:08:51.431Z,101716.55
2018-09-02T23:11:20.303Z,101711.92
2018-09-02T23:13:49.183Z,101711.23
2018-09-02T23:16:18.049Z,101705.58
2018-09-02T23:18:46.932Z,101708.66
2018-09-02T23:21:15.773Z,101701.79
2018-09-02T23:23:44.916Z,101701.09
2018-09-02T23:26:13.758Z,101699.89
2018-09-02T23:28:42.623Z,101700.77
2018-09-02T23:31:11.494Z,101697.51
2018-09-02T23:33:40.377Z,101700.60
2018-09-02T23:36:09.229Z,101689.27
2018-09-02T23:38:38.079Z,101686.53
2018-09-02T23:41:07.052Z,101682.75
2018-09-02T23:43:35.956Z,101683.06
2018-09-02T23:46:04.844Z,101683.06
2018-09-02T23:48:33.726Z,101686.17
2018-09-02T23:51:02.660Z,101685.83
2018-09-02T23:53:31.506Z,101682.36
2018-09-02T23:56:00.404Z,101682.72
2018-09-02T23:58:29.271Z,101683.74
